sensor_id;sensor_type;location;lat;lon;timestamp;pressure;altitude;pressure_sealevel;temperature;humidity
84914;BME280;75177;43.832;5.974;2024-01-16T11:13:52;94448.00;;;8.12;83.04
84914;BME280;75177;43.832;5.974;2024-01-16T11:16:19;94440.88;;;8.04;85.05
84914;BME280;75177;43.832;5.974;2024-01-16T11:18:46;94442.97;;;8.25;83.27
84914;BME280;75177;43.832;5.974;2024-01-16T11:21:15;94446.09;;;8.37;84.65
84914;BME280;75177;43.832;5.974;2024-01-16T11:23:41;94437.50;;;8.27;86.84
84914;BME280;75177;43.832;5.974;2024-01-16T11:26:29;94435.78;;;8.34;84.92
84914;BME280;75177;43.832;5.974;2024-01-16T11:28:58;94436.28;;;8.37;85.54
84914;BME280;75177;43.832;5.974;2024-01-16T11:33:52;94433.16;;;8.56;85.42
84914;BME280;75177;43.832;5.974;2024-01-16T11:39:17;94435.13;;;8.62;81.07
84914;BME280;75177;43.832;5.974;2024-01-16T11:41:50;94435.97;;;8.63;80.94
84914;BME280;75177;43.832;5.974;2024-01-16T11:44:42;94433.81;;;8.58;81.32
84914;BME280;75177;43.832;5.974;2024-01-16T11:47:08;94420.38;;;8.60;80.81
84914;BME280;75177;43.832;5.974;2024-01-16T11:49:36;94416.34;;;8.64;80.21
84914;BME280;75177;43.832;5.974;2024-01-16T11:52:01;94419.00;;;8.64;80.90
84914;BME280;75177;43.832;5.974;2024-01-16T11:54:27;94415.84;;;8.83;79.50
84914;BME280;75177;43.832;5.974;2024-01-16T11:59:43;94412.66;;;8.87;80.80
84914;BME280;75177;43.832;5.974;2024-01-16T12:02:41;94406.47;;;8.95;81.72
84914;BME280;75177;43.832;5.974;2024-01-16T12:05:10;94410.44;;;8.99;81.71
84914;BME280;75177;43.832;5.974;2024-01-16T12:07:47;94415.50;;;9.09;80.05
84914;BME280;75177;43.832;5.974;2024-01-16T12:10:19;94400.63;;;9.14;80.15
84914;BME280;75177;43.832;5.974;2024-01-16T12:12:47;94400.19;;;9.25;79.95
84914;BME280;75177;43.832;5.974;2024-01-16T12:15:14;94393.31;;;9.31;78.99
84914;BME280;75177;43.832;5.974;2024-01-16T12:20:20;94377.53;;;9.44;79.49
84914;BME280;75177;43.832;5.974;2024-01-16T12:23:00;94370.94;;;9.54;80.32
84914;BME280;75177;43.832;5.974;2024-01-16T12:25:28;94358.91;;;9.58;80.37
84914;BME280;75177;43.832;5.974;2024-01-16T12:27:58;94371.69;;;9.63;80.24
84914;BME280;75177;43.832;5.974;2024-01-16T12:30:25;94374.34;;;9.78;81.58
84914;BME280;75177;43.832;5.974;2024-01-16T12:32:51;94375.91;;;9.87;81.29
84914;BME280;75177;43.832;5.974;2024-01-16T12:35:21;94365.59;;;9.98;84.19
84914;BME280;75177;43.832;5.974;2024-01-16T12:37:59;94353.81;;;10.07;83.04
84914;BME280;75177;43.832;5.974;2024-01-16T12:40:25;94355.47;;;10.23;80.90
84914;BME280;75177;43.832;5.974;2024-01-16T12:42:50;94348.44;;;10.36;80.19
84914;BME280;75177;43.832;5.974;2024-01-16T12:45:17;94334.53;;;10.41;80.70
84914;BME280;75177;43.832;5.974;2024-01-16T12:47:43;94321.97;;;10.56;81.76
84914;BME280;75177;43.832;5.974;2024-01-16T12:50:10;94313.19;;;10.83;80.49
84914;BME280;75177;43.832;5.974;2024-01-16T12:52:35;94299.25;;;10.88;79.63
84914;BME280;75177;43.832;5.974;2024-01-16T12:55:01;94287.31;;;10.84;82.79
84914;BME280;75177;43.832;5.974;2024-01-16T12:57:29;94277.66;;;11.10;79.83
84914;BME280;75177;43.832;5.974;2024-01-16T12:59:55;94295.56;;;11.16;82.93
84914;BME280;75177;43.832;5.974;2024-01-16T13:02:23;94296.59;;;11.15;86.07
84914;BME280;75177;43.832;5.974;2024-01-16T13:05:00;94289.75;;;11.41;80.55
84914;BME280;75177;43.832;5.974;2024-01-16T13:07:28;94288.63;;;11.56;74.85
84914;BME280;75177;43.832;5.974;2024-01-16T13:10:09;94294.88;;;11.70;76.08
84914;BME280;75177;43.832;5.974;2024-01-16T13:12:37;94290.88;;;11.87;74.55
84914;BME280;75177;43.832;5.974;2024-01-16T13:15:03;94278.13;;;11.89;77.30
84914;BME280;75177;43.832;5.974;2024-01-16T13:17:30;94274.66;;;11.95;76.98
84914;BME280;75177;43.832;5.974;2024-01-16T13:19:56;94270.16;;;12.02;78.96
84914;BME280;75177;43.832;5.974;2024-01-16T13:22:22;94282.78;;;12.21;75.41
84914;BME280;75177;43.832;5.974;2024-01-16T13:24:48;94264.22;;;12.20;75.42
84914;BME280;75177;43.832;5.974;2024-01-16T13:27:13;94266.75;;;12.34;73.16
84914;BME280;75177;43.832;5.974;2024-01-16T13:34:45;94251.34;;;12.49;71.71
84914;BME280;75177;43.832;5.974;2024-01-16T13:37:20;94249.28;;;12.64;71.46
84914;BME280;75177;43.832;5.974;2024-01-16T13:39:46;94226.00;;;12.71;72.25
84914;BME280;75177;43.832;5.974;2024-01-16T13:42:12;94244.97;;;12.76;72.29
84914;BME280;75177;43.832;5.974;2024-01-16T13:44:37;94245.38;;;12.86;70.16
84914;BME280;75177;43.832;5.974;2024-01-16T13:47:04;94247.66;;;12.89;70.81
84914;BME280;75177;43.832;5.974;2024-01-16T13:49:30;94247.03;;;12.87;70.46
84914;BME280;75177;43.832;5.974;2024-01-16T13:51:55;94229.72;;;12.97;71.43
84914;BME280;75177;43.832;5.974;2024-01-16T13:54:21;94236.34;;;13.14;69.00
84914;BME280;75177;43.832;5.974;2024-01-16T13:56:46;94231.41;;;13.11;71.13
84914;BME280;75177;43.832;5.974;2024-01-16T13:59:12;94243.53;;;13.20;69.39
84914;BME280;75177;43.832;5.974;2024-01-16T14:01:37;94237.53;;;13.31;68.28
84914;BME280;75177;43.832;5.974;2024-01-16T14:04:03;94247.81;;;13.47;67.00
84914;BME280;75177;43.832;5.974;2024-01-16T14:06:30;94235.25;;;13.41;67.04
84914;BME280;75177;43.832;5.974;2024-01-16T14:08:55;94232.16;;;13.44;67.65
84914;BME280;75177;43.832;5.974;2024-01-16T14:11:20;94228.03;;;13.54;64.82
84914;BME280;75177;43.832;5.974;2024-01-16T14:13:46;94220.59;;;13.56;64.91
84914;BME280;75177;43.832;5.974;2024-01-16T14:16:11;94213.56;;;13.55;66.24
84914;BME280;75177;43.832;5.974;2024-01-16T14:18:37;94212.72;;;13.55;65.35
84914;BME280;75177;43.832;5.974;2024-01-16T14:21:02;94199.94;;;13.50;63.36
84914;BME280;75177;43.832;5.974;2024-01-16T14:23:30;94204.50;;;13.50;62.95
84914;BME280;75177;43.832;5.974;2024-01-16T14:25:55;94204.53;;;13.37;64.96
84914;BME280;75177;43.832;5.974;2024-01-16T14:28:20;94206.19;;;13.38;64.42
84914;BME280;75177;43.832;5.974;2024-01-16T14:30:51;94210.75;;;13.31;65.23
84914;BME280;75177;43.832;5.974;2024-01-16T14:33:16;94217.78;;;13.25;64.25
84914;BME280;75177;43.832;5.974;2024-01-16T14:35:42;94212.41;;;13.19;64.61
84914;BME280;75177;43.832;5.974;2024-01-16T14:38:08;94212.41;;;13.19;65.45
84914;BME280;75177;43.832;5.974;2024-01-16T14:40:33;94207.91;;;13.13;64.90
84914;BME280;75177;43.832;5.974;2024-01-16T14:42:58;94203.38;;;13.07;64.88
84914;BME280;75177;43.832;5.974;2024-01-16T14:45:24;94212.44;;;13.06;63.31
84914;BME280;75177;43.832;5.974;2024-01-16T14:47:51;94214.06;;;12.93;64.00
84914;BME280;75177;43.832;5.974;2024-01-16T14:50:17;94220.25;;;12.87;64.93
84914;BME280;75177;43.832;5.974;2024-01-16T14:52:44;94209.53;;;12.81;64.98
84914;BME280;75177;43.832;5.974;2024-01-16T14:55:09;94206.03;;;12.74;65.60
84914;BME280;75177;43.832;5.974;2024-01-16T14:57:37;94211.59;;;12.72;65.71
84914;BME280;75177;43.832;5.974;2024-01-16T15:00:10;94206.66;;;12.69;65.66
84914;BME280;75177;43.832;5.974;2024-01-16T15:02:49;94208.72;;;12.67;66.31
84914;BME280;75177;43.832;5.974;2024-01-16T15:05:15;94209.97;;;12.65;66.08
84914;BME280;75177;43.832;5.974;2024-01-16T15:07:41;94207.69;;;12.62;65.40
84914;BME280;75177;43.832;5.974;2024-01-16T15:10:09;94209.53;;;12.61;65.10
84914;BME280;75177;43.832;5.974;2024-01-16T15:12:37;94201.09;;;12.51;65.81
84914;BME280;75177;43.832;5.974;2024-01-16T15:15:02;94200.47;;;12.49;65.21
84914;BME280;75177;43.832;5.974;2024-01-16T15:17:29;94212.41;;;12.47;66.88
84914;BME280;75177;43.832;5.974;2024-01-16T15:19:55;94225.16;;;12.45;66.66
84914;BME280;75177;43.832;5.974;2024-01-16T15:22:20;94227.22;;;12.36;66.79
84914;BME280;75177;43.832;5.974;2024-01-16T15:24:46;94245.31;;;12.34;67.00
84914;BME280;75177;43.832;5.974;2024-01-16T15:27:12;94252.72;;;12.32;67.48
84914;BME280;75177;43.832;5.974;2024-01-16T15:29:38;94256.03;;;12.28;66.85
84914;BME280;75177;43.832;5.974;2024-01-16T15:32:04;94253.38;;;12.28;68.34
84914;BME280;75177;43.832;5.974;2024-01-16T15:34:29;94246.94;;;12.22;68.22
84914;BME280;75177;43.832;5.974;2024-01-16T15:36:55;94249.22;;;12.19;67.87
84914;BME280;75177;43.832;5.974;2024-01-16T15:39:20;94246.13;;;12.15;68.55
84914;BME280;75177;43.832;5.974;2024-01-16T15:41:47;94257.22;;;12.12;69.30
84914;BME280;75177;43.832;5.974;2024-01-16T15:44:12;94251.25;;;12.10;69.27
84914;BME280;75177;43.832;5.974;2024-01-16T15:47:01;94260.50;;;12.07;69.60
84914;BME280;75177;43.832;5.974;2024-01-16T15:49:28;94271.63;;;12.04;70.57
84914;BME280;75177;43.832;5.974;2024-01-16T15:51:54;94272.84;;;12.02;69.78
84914;BME280;75177;43.832;5.974;2024-01-16T15:54:22;94268.69;;;11.99;69.12
84914;BME280;75177;43.832;5.974;2024-01-16T15:56:48;94267.47;;;11.95;68.90
84914;BME280;75177;43.832;5.974;2024-01-16T15:59:14;94261.69;;;11.92;69.16
84914;BME280;75177;43.832;5.974;2024-01-16T16:01:40;94269.09;;;11.90;69.94
84914;BME280;75177;43.832;5.974;2024-01-16T16:04:06;94280.78;;;11.89;70.37
84914;BME280;75177;43.832;5.974;2024-01-16T16:06:35;94287.56;;;11.85;69.78
84914;BME280;75177;43.832;5.974;2024-01-16T16:09:01;94284.69;;;11.80;69.73
84914;BME280;75177;43.832;5.974;2024-01-16T16:11:27;94283.44;;;11.76;69.57
84914;BME280;75177;43.832;5.974;2024-01-16T16:13:53;94285.88;;;11.71;69.10
84914;BME280;75177;43.832;5.974;2024-01-16T16:16:18;94285.25;;;11.69;70.05
84914;BME280;75177;43.832;5.974;2024-01-16T16:18:43;94289.13;;;11.66;70.04
84914;BME280;75177;43.832;5.974;2024-01-16T16:21:09;94287.41;;;11.59;69.29
84914;BME280;75177;43.832;5.974;2024-01-16T16:23:34;94287.38;;;11.52;68.48
84914;BME280;75177;43.832;5.974;2024-01-16T16:26:00;94296.59;;;11.50;68.82
84914;BME280;75177;43.832;5.974;2024-01-16T16:28:26;94310.19;;;11.48;69.09
84914;BME280;75177;43.832;5.974;2024-01-16T16:30:51;94306.03;;;11.46;69.76
84914;BME280;75177;43.832;5.974;2024-01-16T16:33:17;94313.19;;;11.39;70.33
84914;BME280;75177;43.832;5.974;2024-01-16T16:35:42;94310.22;;;11.27;70.90
84914;BME280;75177;43.832;5.974;2024-01-16T16:38:10;94307.50;;;11.20;71.59
84914;BME280;75177;43.832;5.974;2024-01-16T16:40:38;94320.00;;;11.13;72.08
84914;BME280;75177;43.832;5.974;2024-01-16T16:43:03;94306.41;;;11.08;73.41
84914;BME280;75177;43.832;5.974;2024-01-16T16:45:30;94309.66;;;11.04;74.61
84914;BME280;75177;43.832;5.974;2024-01-16T16:47:56;94322.31;;;10.95;75.72
84914;BME280;75177;43.832;5.974;2024-01-16T16:50:22;94326.84;;;10.95;76.04
84914;BME280;75177;43.832;5.974;2024-01-16T16:52:48;94328.69;;;10.94;76.35
84914;BME280;75177;43.832;5.974;2024-01-16T16:55:13;94328.06;;;10.92;76.50
84914;BME280;75177;43.832;5.974;2024-01-16T16:57:39;94329.69;;;10.93;75.76
84914;BME280;75177;43.832;5.974;2024-01-16T17:00:04;94332.34;;;10.93;75.70
84914;BME280;75177;43.832;5.974;2024-01-16T17:02:32;94319.78;;;10.87;76.14
84914;BME280;75177;43.832;5.974;2024-01-16T17:04:57;94314.84;;;10.84;76.50
84914;BME280;75177;43.832;5.974;2024-01-16T17:07:23;94322.97;;;10.76;76.55
84914;BME280;75177;43.832;5.974;2024-01-16T17:09:49;94325.00;;;10.74;76.09
84914;BME280;75177;43.832;5.974;2024-01-16T17:12:14;94316.75;;;10.69;76.06
84914;BME280;75177;43.832;5.974;2024-01-16T17:14:39;94312.41;;;10.68;76.37
84914;BME280;75177;43.832;5.974;2024-01-16T17:17:05;94306.28;;;10.68;76.09
84914;BME280;75177;43.832;5.974;2024-01-16T17:19:31;94310.97;;;10.66;76.49
84914;BME280;75177;43.832;5.974;2024-01-16T17:21:57;94312.56;;;10.60;76.13
84914;BME280;75177;43.832;5.974;2024-01-16T17:24:22;94310.44;;;10.56;77.12
84914;BME280;75177;43.832;5.974;2024-01-16T17:26:48;94328.06;;;10.50;77.94
84914;BME280;75177;43.832;5.974;2024-01-16T17:29:13;94323.22;;;10.39;78.31
84914;BME280;75177;43.832;5.974;2024-01-16T17:31:39;94325.94;;;10.45;79.37
84914;BME280;75177;43.832;5.974;2024-01-16T17:34:05;94331.22;;;10.39;79.99
84914;BME280;75177;43.832;5.974;2024-01-16T17:36:30;94324.59;;;10.35;79.24
84914;BME280;75177;43.832;5.974;2024-01-16T17:38:56;94327.53;;;10.40;79.46
84914;BME280;75177;43.832;5.974;2024-01-16T17:41:25;94323.81;;;10.34;79.26
84914;BME280;75177;43.832;5.974;2024-01-16T17:43:52;94328.66;;;10.31;79.66
84914;BME280;75177;43.832;5.974;2024-01-16T17:46:19;94326.41;;;10.28;80.98
84914;BME280;75177;43.832;5.974;2024-01-16T17:48:44;94325.03;;;10.17;81.72
84914;BME280;75177;43.832;5.974;2024-01-16T17:51:10;94339.09;;;10.26;81.50
84914;BME280;75177;43.832;5.974;2024-01-16T17:53:36;94332.72;;;10.27;82.77
84914;BME280;75177;43.832;5.974;2024-01-16T17:56:01;94331.00;;;10.19;82.43
84914;BME280;75177;43.832;5.974;2024-01-16T17:58:27;94336.47;;;10.11;81.92
84914;BME280;75177;43.832;5.974;2024-01-16T18:00:53;94336.97;;;10.07;82.62
84914;BME280;75177;43.832;5.974;2024-01-16T18:03:18;94341.69;;;10.05;81.82
84914;BME280;75177;43.832;5.974;2024-01-16T18:05:46;94346.38;;;10.03;82.17
84914;BME280;75177;43.832;5.974;2024-01-16T18:08:12;94342.59;;;9.97;83.49
84914;BME280;75177;43.832;5.974;2024-01-16T18:10:38;94328.19;;;9.92;83.05
84914;BME280;75177;43.832;5.974;2024-01-16T18:13:04;94350.16;;;9.94;83.06
84914;BME280;75177;43.832;5.974;2024-01-16T18:15:31;94356.88;;;9.90;82.65
84914;BME280;75177;43.832;5.974;2024-01-16T18:17:57;94362.59;;;9.87;83.39
84914;BME280;75177;43.832;5.974;2024-01-16T18:20:25;94354.31;;;9.82;82.83
84914;BME280;75177;43.832;5.974;2024-01-16T18:22:57;94369.94;;;9.85;83.09
84914;BME280;75177;43.832;5.974;2024-01-16T18:25:22;94367.91;;;9.87;82.87
84914;BME280;75177;43.832;5.974;2024-01-16T18:27:50;94377.28;;;9.83;84.49
84914;BME280;75177;43.832;5.974;2024-01-16T18:30:18;94367.34;;;9.77;85.68
84914;BME280;75177;43.832;5.974;2024-01-16T18:32:44;94355.03;;;9.76;86.19
84914;BME280;75177;43.832;5.974;2024-01-16T18:35:11;94353.66;;;9.65;86.69
84914;BME280;75177;43.832;5.974;2024-01-16T18:37:38;94382.06;;;9.72;86.21
84914;BME280;75177;43.832;5.974;2024-01-16T18:40:05;94388.66;;;9.77;86.44
84914;BME280;75177;43.832;5.974;2024-01-16T18:42:37;94399.72;;;9.73;87.70
84914;BME280;75177;43.832;5.974;2024-01-16T18:45:03;94398.44;;;9.69;88.06
84914;BME280;75177;43.832;5.974;2024-01-16T18:47:30;94390.13;;;9.64;88.25
84914;BME280;75177;43.832;5.974;2024-01-16T18:49:57;94401.81;;;9.63;86.85
84914;BME280;75177;43.832;5.974;2024-01-16T18:52:22;94392.91;;;9.56;85.92
84914;BME280;75177;43.832;5.974;2024-01-16T18:54:48;94400.63;;;9.51;84.31
84914;BME280;75177;43.832;5.974;2024-01-16T18:57:16;94397.66;;;9.46;84.16
84914;BME280;75177;43.832;5.974;2024-01-16T18:59:42;94395.00;;;9.46;83.92
84914;BME280;75177;43.832;5.974;2024-01-16T19:02:10;94399.69;;;9.44;83.83
84914;BME280;75177;43.832;5.974;2024-01-16T19:04:36;94403.72;;;9.40;83.81
84914;BME280;75177;43.832;5.974;2024-01-16T19:07:02;94399.38;;;9.39;83.71
84914;BME280;75177;43.832;5.974;2024-01-16T19:09:37;94394.16;;;9.31;84.60
84914;BME280;75177;43.832;5.974;2024-01-16T19:12:02;94391.22;;;9.26;86.28
84914;BME280;75177;43.832;5.974;2024-01-16T19:14:31;94385.88;;;9.26;86.00
84914;BME280;75177;43.832;5.974;2024-01-16T19:16:57;94382.84;;;9.29;86.22
84914;BME280;75177;43.832;5.974;2024-01-16T19:19:22;94389.19;;;9.28;87.33
84914;BME280;75177;43.832;5.974;2024-01-16T19:21:50;94384.22;;;9.25;87.72
84914;BME280;75177;43.832;5.974;2024-01-16T19:24:16;94379.63;;;9.19;88.43
84914;BME280;75177;43.832;5.974;2024-01-16T19:26:43;94371.72;;;9.11;89.50
84914;BME280;75177;43.832;5.974;2024-01-16T19:29:09;94377.16;;;9.18;90.20
84914;BME280;75177;43.832;5.974;2024-01-16T19:31:35;94381.63;;;9.17;90.81
84914;BME280;75177;43.832;5.974;2024-01-16T19:34:00;94372.28;;;9.21;90.85
84914;BME280;75177;43.832;5.974;2024-01-16T19:36:26;94370.63;;;9.20;91.19
84914;BME280;75177;43.832;5.974;2024-01-16T19:38:51;94362.66;;;9.20;92.09
84914;BME280;75177;43.832;5.974;2024-01-16T19:41:17;94359.03;;;9.13;91.60
84914;BME280;75177;43.832;5.974;2024-01-16T19:43:42;94354.06;;;9.10;91.49
84914;BME280;75177;43.832;5.974;2024-01-16T19:46:08;94367.69;;;9.15;91.16
84914;BME280;75177;43.832;5.974;2024-01-16T19:48:33;94370.53;;;9.14;91.19
84914;BME280;75177;43.832;5.974;2024-01-16T19:51:04;94343.22;;;8.97;91.98
84914;BME280;75177;43.832;5.974;2024-01-16T19:53:30;94359.41;;;9.10;92.60
84914;BME280;75177;43.832;5.974;2024-01-16T19:55:55;94355.16;;;9.01;92.99
84914;BME280;75177;43.832;5.974;2024-01-16T19:58:24;94348.56;;;8.97;93.98
84914;BME280;75177;43.832;5.974;2024-01-16T20:00:49;94352.22;;;8.96;95.00
84914;BME280;75177;43.832;5.974;2024-01-16T20:03:14;94357.19;;;8.99;94.36
84914;BME280;75177;43.832;5.974;2024-01-16T20:05:40;94366.16;;;8.98;94.87
84914;BME280;75177;43.832;5.974;2024-01-16T20:08:10;94357.59;;;8.88;95.42
84914;BME280;75177;43.832;5.974;2024-01-16T20:10:36;94358.25;;;8.90;95.35
84914;BME280;75177;43.832;5.974;2024-01-16T20:13:05;94355.97;;;8.87;95.37
84914;BME280;75177;43.832;5.974;2024-01-16T20:15:32;94356.97;;;8.86;95.82
84914;BME280;75177;43.832;5.974;2024-01-16T20:18:02;94362.28;;;8.86;96.46
84914;BME280;75177;43.832;5.974;2024-01-16T20:20:28;94365.28;;;8.83;96.40
84914;BME280;75177;43.832;5.974;2024-01-16T20:22:53;94383.56;;;8.86;95.67
84914;BME280;75177;43.832;5.974;2024-01-16T20:25:19;94391.22;;;8.89;95.59
84914;BME280;75177;43.832;5.974;2024-01-16T20:27:46;94399.53;;;8.86;95.50
84914;BME280;75177;43.832;5.974;2024-01-16T20:30:12;94412.53;;;8.81;95.65
84914;BME280;75177;43.832;5.974;2024-01-16T20:32:45;94416.28;;;8.72;97.64
84914;BME280;75177;43.832;5.974;2024-01-16T20:35:11;94421.22;;;8.75;97.44
84914;BME280;75177;43.832;5.974;2024-01-16T20:37:41;94422.25;;;8.74;96.24
84914;BME280;75177;43.832;5.974;2024-01-16T20:40:07;94420.47;;;8.66;96.28
84914;BME280;75177;43.832;5.974;2024-01-16T20:42:34;94421.66;;;8.64;94.50
84914;BME280;75177;43.832;5.974;2024-01-16T20:44:59;94415.84;;;8.60;94.17
84914;BME280;75177;43.832;5.974;2024-01-16T20:47:25;94412.06;;;8.55;93.90
84914;BME280;75177;43.832;5.974;2024-01-16T20:49:50;94407.41;;;8.57;94.34
84914;BME280;75177;43.832;5.974;2024-01-16T20:52:15;94410.44;;;8.54;94.17
84914;BME280;75177;43.832;5.974;2024-01-16T20:54:41;94402.13;;;8.49;94.31
84914;BME280;75177;43.832;5.974;2024-01-16T20:57:08;94405.44;;;8.51;95.37
84914;BME280;75177;43.832;5.974;2024-01-16T20:59:33;94388.53;;;8.44;95.92
84914;BME280;75177;43.832;5.974;2024-01-16T21:01:59;94396.16;;;8.47;96.25
84914;BME280;75177;43.832;5.974;2024-01-16T21:04:25;94388.19;;;8.47;97.53
84914;BME280;75177;43.832;5.974;2024-01-16T21:06:50;94382.50;;;8.50;97.59
84914;BME280;75177;43.832;5.974;2024-01-16T21:09:23;94379.84;;;8.50;98.05
84914;BME280;75177;43.832;5.974;2024-01-16T21:11:49;94384.50;;;8.48;98.20
84914;BME280;75177;43.832;5.974;2024-01-16T21:14:14;94380.50;;;8.52;98.75
84914;BME280;75177;43.832;5.974;2024-01-16T21:16:39;94368.84;;;8.53;99.73
84914;BME280;75177;43.832;5.974;2024-01-16T21:19:05;94361.53;;;8.55;99.84
84914;BME280;75177;43.832;5.974;2024-01-16T21:21:33;94347.59;;;8.53;99.80
84914;BME280;75177;43.832;5.974;2024-01-16T21:23:59;94339.13;;;8.49;99.92
84914;BME280;75177;43.832;5.974;2024-01-16T21:26:24;94343.25;;;8.52;99.82
84914;BME280;75177;43.832;5.974;2024-01-16T21:28:49;94358.16;;;8.61;98.97
84914;BME280;75177;43.832;5.974;2024-01-16T21:31:15;94362.56;;;8.54;100.00
84914;BME280;75177;43.832;5.974;2024-01-16T21:33:43;94362.91;;;8.51;100.00
84914;BME280;75177;43.832;5.974;2024-01-16T21:36:09;94368.22;;;8.51;100.00
84914;BME280;75177;43.832;5.974;2024-01-16T21:38:36;94382.81;;;8.55;100.00
84914;BME280;75177;43.832;5.974;2024-01-16T21:41:02;94382.81;;;8.55;99.36
84914;BME280;75177;43.832;5.974;2024-01-16T21:43:32;94391.44;;;8.57;98.65
84914;BME280;75177;43.832;5.974;2024-01-16T21:45:59;94385.13;;;8.58;98.41
84914;BME280;75177;43.832;5.974;2024-01-16T21:48:24;94391.09;;;8.60;98.60
84914;BME280;75177;43.832;5.974;2024-01-16T21:50:50;94400.44;;;8.56;98.71
84914;BME280;75177;43.832;5.974;2024-01-16T21:53:15;94403.09;;;8.56;98.48
84914;BME280;75177;43.832;5.974;2024-01-16T21:55:40;94404.75;;;8.57;97.95
84914;BME280;75177;43.832;5.974;2024-01-16T21:58:06;94399.09;;;8.60;96.87
84914;BME280;75177;43.832;5.974;2024-01-16T22:00:32;94394.09;;;8.57;96.69
84914;BME280;75177;43.832;5.974;2024-01-16T22:02:58;94396.09;;;8.55;96.04
84914;BME280;75177;43.832;5.974;2024-01-16T22:05:25;94381.81;;;8.56;96.10
84914;BME280;75177;43.832;5.974;2024-01-16T22:07:51;94368.22;;;8.51;95.97
84914;BME280;75177;43.832;5.974;2024-01-16T22:10:16;94360.03;;;8.52;95.37
84914;BME280;75177;43.832;5.974;2024-01-16T22:12:42;94360.88;;;8.53;95.23
84914;BME280;75177;43.832;5.974;2024-01-16T22:15:07;94366.19;;;8.53;95.08
84914;BME280;75177;43.832;5.974;2024-01-16T22:17:33;94355.56;;;8.53;94.92
84914;BME280;75177;43.832;5.974;2024-01-16T22:19:59;94345.56;;;8.55;95.08
84914;BME280;75177;43.832;5.974;2024-01-16T22:22:24;94352.25;;;8.51;95.13
84914;BME280;75177;43.832;5.974;2024-01-16T22:24:50;94344.59;;;8.56;95.25
84914;BME280;75177;43.832;5.974;2024-01-16T22:27:16;94327.78;;;8.55;94.97
84914;BME280;75177;43.832;5.974;2024-01-16T22:29:43;94326.94;;;8.55;94.90
84914;BME280;75177;43.832;5.974;2024-01-16T22:32:12;94332.28;;;8.55;94.66
84914;BME280;75177;43.832;5.974;2024-01-16T22:34:38;94349.91;;;8.56;94.57
84914;BME280;75177;43.832;5.974;2024-01-16T22:37:05;94344.91;;;8.53;94.55
84914;BME280;75177;43.832;5.974;2024-01-16T22:39:33;94350.53;;;8.58;94.65
84914;BME280;75177;43.832;5.974;2024-01-16T22:41:58;94358.88;;;8.55;94.99
84914;BME280;75177;43.832;5.974;2024-01-16T22:44:23;94367.50;;;8.57;94.75
84914;BME280;75177;43.832;5.974;2024-01-16T22:46:50;94372.09;;;8.63;94.39
84914;BME280;75177;43.832;5.974;2024-01-16T22:49:16;94384.03;;;8.67;94.32
84914;BME280;75177;43.832;5.974;2024-01-16T22:51:41;94390.19;;;8.67;94.58
84914;BME280;75177;43.832;5.974;2024-01-16T22:54:07;94386.91;;;8.65;94.86
84914;BME280;75177;43.832;5.974;2024-01-16T22:56:32;94381.13;;;8.62;95.00
84914;BME280;75177;43.832;5.974;2024-01-16T22:58:57;94384.75;;;8.61;95.38
84914;BME280;75177;43.832;5.974;2024-01-16T23:01:24;94377.63;;;8.61;95.66
84914;BME280;75177;43.832;5.974;2024-01-16T23:03:51;94373.28;;;8.60;96.04
84914;BME280;75177;43.832;5.974;2024-01-16T23:06:24;94384.03;;;8.67;95.87
84914;BME280;75177;43.832;5.974;2024-01-16T23:08:56;94371.41;;;8.69;96.15
84914;BME280;75177;43.832;5.974;2024-01-16T23:11:22;94360.41;;;8.72;96.44
84914;BME280;75177;43.832;5.974;2024-01-16T23:13:48;94351.25;;;8.74;97.15
84914;BME280;75177;43.832;5.974;2024-01-16T23:16:14;94337.09;;;8.74;97.02
84914;BME280;75177;43.832;5.974;2024-01-16T23:18:39;94331.13;;;8.72;96.77
84914;BME280;75177;43.832;5.974;2024-01-16T23:21:05;94333.81;;;8.72;96.33
84914;BME280;75177;43.832;5.974;2024-01-16T23:23:30;94340.94;;;8.71;96.74
84914;BME280;75177;43.832;5.974;2024-01-16T23:25:56;94334.78;;;8.71;97.22
84914;BME280;75177;43.832;5.974;2024-01-16T23:28:21;94346.91;;;8.73;97.89
84914;BME280;75177;43.832;5.974;2024-01-16T23:30:47;94349.75;;;8.72;98.65
84914;BME280;75177;43.832;5.974;2024-01-16T23:33:12;94353.91;;;8.74;99.20
84914;BME280;75177;43.832;5.974;2024-01-16T23:35:38;94340.75;;;8.73;99.41
84914;BME280;75177;43.832;5.974;2024-01-16T23:38:07;94344.06;;;8.75;99.88
84914;BME280;75177;43.832;5.974;2024-01-16T23:40:35;94349.03;;;8.78;100.00
84914;BME280;75177;43.832;5.974;2024-01-16T23:43:00;94347.38;;;8.77;100.00
84914;BME280;75177;43.832;5.974;2024-01-16T23:45:25;94351.72;;;8.78;100.00
84914;BME280;75177;43.832;5.974;2024-01-16T23:47:51;94345.38;;;8.79;100.00
84914;BME280;75177;43.832;5.974;2024-01-16T23:50:17;94343.34;;;8.81;100.00
84914;BME280;75177;43.832;5.974;2024-01-16T23:52:43;94350.34;;;8.82;100.00
84914;BME280;75177;43.832;5.974;2024-01-16T23:55:08;94341.72;;;8.80;100.00
84914;BME280;75177;43.832;5.974;2024-01-16T23:57:37;94332.69;;;8.81;100.00
